createdAt,value
2023-01-09T00:03:01.068Z,8.12
2023-01-09T00:07:57.354Z,7.98
2023-01-09T00:12:53.641Z,7.75
2023-01-09T00:17:49.868Z,7.81
2023-01-09T00:22:45.142Z,7.82
2023-01-09T00:27:41.344Z,7.82
2023-01-09T00:32:37.649Z,7.86
2023-01-09T00:37:33.925Z,7.84
2023-01-09T00:42:31.146Z,7.95
2023-01-09T00:47:31.448Z,8.03
2023-01-09T00:52:27.691Z,7.77
2023-01-09T00:57:23.935Z,7.93
2023-01-09T01:02:20.245Z,7.78
2023-01-09T01:07:16.426Z,7.65
2023-01-09T01:12:12.734Z,7.79
2023-01-09T01:17:08.929Z,7.69
2023-01-09T01:22:05.242Z,7.38
2023-01-09T01:27:01.489Z,7.3
2023-01-09T01:31:57.745Z,7.06
2023-01-09T01:36:54.006Z,7.14
2023-01-09T01:41:50.228Z,7.12
2023-01-09T01:46:47.512Z,7.16
2023-01-09T01:51:45.729Z,6.97
2023-01-09T01:56:48.011Z,6.9
2023-01-09T02:01:45.390Z,6.96
2023-01-09T02:06:43.545Z,7
2023-01-09T02:11:43.780Z,7.05
2023-01-09T02:16:51.030Z,6.92
2023-01-09T02:21:59.248Z,6.69
2023-01-09T02:27:04.442Z,6.8
2023-01-09T02:32:06.728Z,6.6
2023-01-09T02:37:10.970Z,6.73
2023-01-09T02:42:13.197Z,6.67
2023-01-09T02:47:14.464Z,6.51
2023-01-09T02:52:23.685Z,6.43
2023-01-09T02:57:32.902Z,6.16
2023-01-09T03:02:42.264Z,6.34
2023-01-09T03:07:47.357Z,6.09
2023-01-09T03:12:48.665Z,6.29
2023-01-09T03:17:48.846Z,6.17
2023-01-09T03:22:47.141Z,5.96
2023-01-09T03:27:43.379Z,5.89
2023-01-09T03:32:39.631Z,5.88
2023-01-09T03:37:35.904Z,5.85
2023-01-09T03:42:32.160Z,5.97
2023-01-09T03:47:28.402Z,6.06
2023-01-09T03:52:24.687Z,5.95
2023-01-09T03:57:20.919Z,6.07
2023-01-09T04:02:17.335Z,6.38
2023-01-09T04:07:13.478Z,6.31
2023-01-09T04:12:09.696Z,6.24
2023-01-09T04:17:06.003Z,6.21
2023-01-09T04:22:02.244Z,6.27
2023-01-09T04:26:58.504Z,6.31
2023-01-09T04:31:54.786Z,6.49
2023-01-09T04:36:51.056Z,6.49
2023-01-09T04:41:47.287Z,6.41
2023-01-09T04:46:43.523Z,6.23
2023-01-09T04:51:39.795Z,6.05
2023-01-09T04:56:36.090Z,6.01
2023-01-09T05:01:32.437Z,6.16
2023-01-09T05:06:28.551Z,6.22
2023-01-09T05:11:24.851Z,6.28
2023-01-09T05:16:21.170Z,6.1
2023-01-09T05:21:17.356Z,6.27
2023-01-09T05:26:13.595Z,6.35
2023-01-09T05:31:09.887Z,6.28
2023-01-09T05:36:06.108Z,6.29
2023-01-09T05:41:02.362Z,6.2
2023-01-09T05:45:58.645Z,6.47
2023-01-09T05:50:54.898Z,6.58
2023-01-09T05:55:51.160Z,6.5
2023-01-09T06:00:47.421Z,6.42
2023-01-09T06:05:43.670Z,6.66
2023-01-09T06:10:41.962Z,6.53
2023-01-09T06:15:38.284Z,6.51
2023-01-09T06:20:34.484Z,6.6
2023-01-09T06:25:30.704Z,6.45
2023-01-09T06:30:26.964Z,6.49
2023-01-09T06:35:23.285Z,6.69
2023-01-09T06:40:19.536Z,6.8
2023-01-09T06:45:15.780Z,6.73
2023-01-09T06:50:12.038Z,6.79
2023-01-09T06:55:08.281Z,6.95
2023-01-09T07:00:04.505Z,6.94
2023-01-09T07:05:00.794Z,6.73
2023-01-09T07:09:57.030Z,7.01
2023-01-09T07:14:53.301Z,6.78
2023-01-09T07:19:49.555Z,6.82
2023-01-09T07:24:45.835Z,7.01
2023-01-09T07:29:42.056Z,7.11
2023-01-09T07:34:38.379Z,7.19
2023-01-09T07:39:34.586Z,7.19
2023-01-09T07:44:30.908Z,7.55
2023-01-09T07:49:27.142Z,7.53
2023-01-09T07:54:23.399Z,7.44
2023-01-09T07:59:19.678Z,7.27
2023-01-09T08:04:16.108Z,7.48
2023-01-09T08:09:12.190Z,7.46
2023-01-09T08:14:09.417Z,7.56
2023-01-09T08:19:05.661Z,7.41
2023-01-09T08:24:01.934Z,7.83
2023-01-09T08:28:58.194Z,7.73
2023-01-09T08:33:54.786Z,7.98
2023-01-09T08:38:50.742Z,7.97
2023-01-09T08:43:47.010Z,7.82
2023-01-09T08:48:43.243Z,7.75
2023-01-09T08:53:40.035Z,7.68
2023-01-09T08:58:35.803Z,7.64
2023-01-09T09:03:32.016Z,7.63
2023-01-09T09:08:30.312Z,7.5
2023-01-09T09:13:27.529Z,7.25
2023-01-09T09:18:23.786Z,7.27
2023-01-09T09:23:20.036Z,7.32
2023-01-09T09:28:20.355Z,7.32
2023-01-09T09:33:16.516Z,7.24
2023-01-09T09:38:13.010Z,7.44
2023-01-09T09:43:26.028Z,7.19
2023-01-09T09:48:32.313Z,7.41
2023-01-09T09:53:36.546Z,7.27
2023-01-09T09:58:36.789Z,7.45
2023-01-09T10:03:37.120Z,7.26
2023-01-09T10:08:45.259Z,7.29
2023-01-09T10:13:44.547Z,7.42
2023-01-09T10:18:52.706Z,7.29
2023-01-09T10:24:03.724Z,7.38
2023-01-09T10:29:15.193Z,7.52
2023-01-09T10:34:29.369Z,7.48
2023-01-09T10:39:34.639Z,7.63
2023-01-09T10:44:35.131Z,7.85
2023-01-09T10:49:32.069Z,7.66
2023-01-09T10:54:28.417Z,7.81
2023-01-09T10:59:25.645Z,7.69
2023-01-09T11:04:25.969Z,7.88
2023-01-09T11:09:22.170Z,7.95
2023-01-09T11:14:24.366Z,7.97
2023-01-09T11:19:22.702Z,8.04
2023-01-09T11:24:25.492Z,7.92
2023-01-09T11:29:41.140Z,7.91
2023-01-09T11:34:38.369Z,8.11
2023-01-09T11:39:39.622Z,8.2
2023-01-09T11:44:36.081Z,8.24
2023-01-09T11:49:32.145Z,8.39
2023-01-09T11:54:42.389Z,8.28
2023-01-09T11:59:45.127Z,8.42
2023-01-09T12:04:56.087Z,8.59
2023-01-09T12:09:56.064Z,8.47
2023-01-09T12:15:09.888Z,8.66
2023-01-09T12:20:25.630Z,8.69
2023-01-09T12:25:32.718Z,8.62
2023-01-09T12:30:40.967Z,8.62
2023-01-09T12:35:52.195Z,8.76
2023-01-09T12:41:04.946Z,8.69
2023-01-09T12:46:14.728Z,8.68
2023-01-09T12:51:24.895Z,8.66
2023-01-09T12:56:27.354Z,8.55
2023-01-09T13:01:28.409Z,8.54
2023-01-09T13:06:29.625Z,8.65
2023-01-09T13:11:42.625Z,8.58
2023-01-09T13:16:48.136Z,8.71
2023-01-09T13:21:46.279Z,8.55
2023-01-09T13:26:47.784Z,8.55
2023-01-09T13:32:07.886Z,8.75
2023-01-09T13:37:05.130Z,8.66
2023-01-09T13:42:03.282Z,8.67
2023-01-09T13:47:03.716Z,8.6
2023-01-09T13:52:05.786Z,8.52
2023-01-09T13:57:20.293Z,8.73
2023-01-09T14:02:23.069Z,8.56
2023-01-09T14:07:30.802Z,8.58
2023-01-09T14:12:33.677Z,8.33
2023-01-09T14:17:32.155Z,8.18
2023-01-09T14:22:30.229Z,8.1
2023-01-09T14:27:37.422Z,8.13
2023-01-09T14:32:42.748Z,8.09
2023-01-09T14:37:52.902Z,8.11
2023-01-09T14:42:59.139Z,8.18
2023-01-09T14:48:11.383Z,8.05
2023-01-09T14:53:12.358Z,8
2023-01-09T14:58:10.006Z,7.83
2023-01-09T15:03:12.128Z,7.8
2023-01-09T15:08:18.773Z,7.67
2023-01-09T15:13:19.247Z,7.61
2023-01-09T15:18:20.824Z,7.62
2023-01-09T15:23:22.020Z,7.57
2023-01-09T16:22:12.296Z,7.37
2023-01-09T16:27:19.420Z,7.27
2023-01-09T16:32:17.765Z,7.47
2023-01-09T16:37:14.086Z,7.42
2023-01-09T16:42:17.060Z,7.51
2023-01-09T16:47:28.571Z,7.52
2023-01-09T16:52:30.644Z,7.46
2023-01-09T16:57:34.540Z,7.45
2023-01-09T17:02:31.297Z,7.56
2023-01-09T17:07:27.417Z,7.64
2023-01-09T17:12:28.259Z,7.51
2023-01-09T17:17:30.408Z,7.68
2023-01-09T17:22:30.629Z,7.37
2023-01-09T17:27:27.501Z,7.75
2023-01-09T17:32:23.756Z,7.72
2023-01-09T17:37:26.787Z,7.52
2023-01-09T17:42:24.225Z,7.36
2023-01-09T17:47:20.470Z,7.62
2023-01-09T17:52:17.799Z,7.58
2023-01-09T17:57:24.359Z,7.35
2023-01-09T18:02:28.665Z,7.41
2023-01-09T18:07:31.503Z,7.04
2023-01-09T18:12:27.711Z,7.14
2023-01-09T18:17:23.960Z,7.03
2023-01-09T18:22:19.846Z,7.17
2023-01-09T18:27:20.464Z,7.13
2023-01-09T18:32:16.773Z,7.25
2023-01-09T18:37:13.016Z,7.06
2023-01-09T18:42:17.708Z,7.04
2023-01-09T18:47:15.470Z,6.92
2023-01-09T18:52:16.655Z,6.93
2023-01-09T18:57:17.971Z,6.76
2023-01-09T19:02:19.273Z,6.9
2023-01-09T19:07:15.558Z,6.81
2023-01-09T19:12:15.819Z,7.02
2023-01-09T19:17:17.976Z,7.01
2023-01-09T19:22:13.277Z,7.07
2023-01-09T19:27:10.523Z,7.05
2023-01-09T19:32:06.907Z,7.19
2023-01-09T19:37:02.096Z,7.18
2023-01-09T19:42:07.348Z,7.18
2023-01-09T19:47:08.018Z,6.98
2023-01-09T19:52:04.793Z,7.12
2023-01-09T19:57:09.438Z,7.25
2023-01-09T20:02:14.444Z,7.18
2023-01-09T20:07:16.517Z,7.02
2023-01-09T20:12:12.800Z,7.19
2023-01-09T20:17:13.960Z,7.1
2023-01-09T20:22:14.208Z,7.23
2023-01-09T20:27:10.843Z,7.27
2023-01-09T20:32:07.804Z,7.16
2023-01-09T20:37:04.139Z,7.09
2023-01-09T20:42:07.299Z,7.17
2023-01-09T20:47:13.906Z,7.06
2023-01-09T20:52:15.031Z,7.06
2023-01-09T20:57:15.102Z,6.99
2023-01-09T21:02:15.283Z,6.9
2023-01-09T21:07:16.774Z,7.08
2023-01-09T21:12:13.512Z,6.96
2023-01-09T21:17:14.134Z,7.23
2023-01-09T21:22:10.281Z,7.06
2023-01-09T21:27:24.129Z,6.95
2023-01-09T21:32:25.184Z,7.01
2023-01-09T21:37:30.964Z,6.91
2023-01-09T21:42:28.254Z,7.26
2023-01-09T21:47:28.880Z,7.22
2023-01-09T21:52:26.405Z,7.28
2023-01-09T21:57:26.017Z,7.23
2023-01-09T22:02:26.653Z,7.23
2023-01-09T22:07:26.727Z,6.89
2023-01-09T22:12:31.699Z,6.91
2023-01-09T22:17:28.007Z,6.88
2023-01-09T22:22:24.230Z,6.94
2023-01-09T22:27:24.958Z,6.93
2023-01-09T22:32:20.744Z,6.84
2023-01-09T22:37:17.081Z,6.93
2023-01-09T22:42:13.250Z,6.95
2023-01-09T22:47:10.082Z,7.18
2023-01-09T22:52:06.822Z,7.18
2023-01-09T22:57:03.065Z,7.79
2023-01-09T23:01:59.422Z,7.29
2023-01-09T23:06:55.916Z,7.5
2023-01-09T23:11:51.843Z,7.47
2023-01-09T23:16:48.114Z,7.26
2023-01-09T23:21:45.332Z,7.67
2023-01-09T23:26:54.401Z,7.38
2023-01-09T23:31:54.956Z,7.52
2023-01-09T23:36:51.122Z,7.74
2023-01-09T23:41:47.310Z,7.42
2023-01-09T23:46:43.590Z,7.43
2023-01-09T23:51:39.848Z,7.28
2023-01-09T23:56:37.122Z,7.37
